createdAt,value
2022-11-30T00:00:57.400Z,2.59
2022-11-30T00:03:24.653Z,2.60
2022-11-30T00:05:51.999Z,2.60
2022-11-30T00:08:18.798Z,2.62
2022-11-30T00:10:45.259Z,2.63
2022-11-30T00:13:11.785Z,2.62
2022-11-30T00:15:38.283Z,2.64
2022-11-30T00:18:05.393Z,2.64
2022-11-30T00:20:31.862Z,2.62
2022-11-30T00:22:58.364Z,2.60
2022-11-30T00:25:25.423Z,2.60
2022-11-30T00:27:52.210Z,2.63
2022-11-30T00:30:18.892Z,2.63
2022-11-30T00:32:45.412Z,2.66
2022-11-30T00:35:12.066Z,2.65
2022-11-30T00:37:38.566Z,2.63
2022-11-30T00:40:06.412Z,2.64
2022-11-30T00:42:32.904Z,2.63
2022-11-30T00:44:59.352Z,2.62
2022-11-30T00:47:25.841Z,2.63
2022-11-30T00:49:52.311Z,2.68
2022-11-30T00:52:18.833Z,2.68
2022-11-30T00:54:45.657Z,2.67
2022-11-30T00:57:12.494Z,2.66
2022-11-30T00:59:39.122Z,2.66
2022-11-30T01:02:05.845Z,2.64
2022-11-30T01:04:32.639Z,2.64
2022-11-30T01:06:59.064Z,2.65
2022-11-30T01:09:25.543Z,2.63
2022-11-30T01:11:52.031Z,2.63
2022-11-30T01:14:18.580Z,2.63
2022-11-30T01:16:45.094Z,2.65
2022-11-30T01:19:11.675Z,2.67
2022-11-30T01:21:38.538Z,2.67
2022-11-30T01:24:05.420Z,2.67
2022-11-30T01:26:31.890Z,2.69
2022-11-30T01:28:58.429Z,2.68
2022-11-30T01:31:25.605Z,2.65
2022-11-30T01:33:54.651Z,2.68
2022-11-30T01:36:25.501Z,2.66
2022-11-30T01:38:55.270Z,2.63
2022-11-30T01:41:30.227Z,2.61
2022-11-30T01:44:06.986Z,2.62
2022-11-30T01:46:38.313Z,2.62
2022-11-30T01:49:10.280Z,2.62
2022-11-30T01:51:37.344Z,2.60
2022-11-30T01:54:05.923Z,2.59
2022-11-30T01:56:32.634Z,2.56
2022-11-30T01:58:59.506Z,2.56
2022-11-30T02:01:26.018Z,2.55
2022-11-30T02:04:24.920Z,2.49
2022-11-30T02:06:51.608Z,2.49
2022-11-30T02:09:20.215Z,2.46
2022-11-30T02:11:47.620Z,2.45
2022-11-30T02:14:32.374Z,2.42
2022-11-30T02:17:01.732Z,2.39
2022-11-30T02:19:40.340Z,2.37
2022-11-30T02:22:17.861Z,2.34
2022-11-30T02:25:23.318Z,2.34
2022-11-30T02:28:21.657Z,2.28
2022-11-30T02:30:52.266Z,2.29
2022-11-30T02:33:27.685Z,2.24
2022-11-30T02:35:55.645Z,2.20
2022-11-30T02:38:24.209Z,2.15
2022-11-30T02:40:51.084Z,2.10
2022-11-30T02:43:21.779Z,2.06
2022-11-30T02:45:57.215Z,2.02
2022-11-30T02:48:39.359Z,2.00
2022-11-30T02:51:10.792Z,1.92
2022-11-30T02:53:40.665Z,1.90
2022-11-30T02:56:07.326Z,1.88
2022-11-30T02:58:33.892Z,1.92
2022-11-30T03:01:00.277Z,1.85
2022-11-30T03:03:26.801Z,1.89
2022-11-30T03:05:53.248Z,1.85
2022-11-30T03:08:19.725Z,1.83
2022-11-30T03:10:46.203Z,1.81
2022-11-30T03:13:12.636Z,1.82
2022-11-30T03:15:39.100Z,1.82
2022-11-30T03:18:05.781Z,1.79
2022-11-30T03:20:32.381Z,1.77
2022-11-30T03:23:02.404Z,1.74
2022-11-30T03:25:29.662Z,1.73
2022-11-30T03:27:56.164Z,1.69
2022-11-30T03:30:22.842Z,1.68
2022-11-30T03:32:50.909Z,1.65
2022-11-30T03:35:17.345Z,1.60
2022-11-30T03:37:44.289Z,1.58
2022-11-30T03:40:11.494Z,1.56
2022-11-30T03:42:37.986Z,1.53
2022-11-30T03:45:05.020Z,1.50
2022-11-30T03:47:31.373Z,1.45
2022-11-30T03:50:00.044Z,1.39
2022-11-30T03:52:26.642Z,1.34
2022-11-30T03:54:53.245Z,1.34
2022-11-30T03:57:19.746Z,1.30
2022-11-30T03:59:46.206Z,1.27
2022-11-30T04:02:12.880Z,1.21
2022-11-30T04:04:39.331Z,1.20
2022-11-30T04:07:05.816Z,1.13
2022-11-30T04:09:32.275Z,1.09
2022-11-30T04:11:59.036Z,1.06
2022-11-30T04:14:25.513Z,1.06
2022-11-30T04:16:51.932Z,1.06
2022-11-30T04:19:18.364Z,1.03
2022-11-30T04:21:44.860Z,0.99
2022-11-30T04:24:11.270Z,0.99
2022-11-30T04:26:37.825Z,1.06
2022-11-30T04:29:05.323Z,1.03
2022-11-30T04:31:34.870Z,0.98
2022-11-30T04:34:01.453Z,0.91
2022-11-30T04:36:27.935Z,0.87
2022-11-30T04:38:54.378Z,0.83
2022-11-30T04:41:20.850Z,0.75
2022-11-30T04:43:47.423Z,0.75
2022-11-30T04:46:13.909Z,0.74
2022-11-30T04:48:40.513Z,0.70
2022-11-30T04:51:08.718Z,0.66
2022-11-30T04:53:37.101Z,0.64
2022-11-30T04:56:10.001Z,0.57
2022-11-30T04:58:37.078Z,0.54
2022-11-30T05:01:03.642Z,0.51
2022-11-30T05:03:30.085Z,0.48
2022-11-30T05:05:56.509Z,0.46
2022-11-30T05:08:23.009Z,0.43
2022-11-30T05:10:53.765Z,0.41
2022-11-30T05:13:21.818Z,0.40
2022-11-30T05:15:48.298Z,0.37
2022-11-30T05:18:15.924Z,0.33
2022-11-30T05:20:48.079Z,0.31
2022-11-30T05:23:14.853Z,0.28
2022-11-30T05:25:41.421Z,0.26
2022-11-30T05:28:08.107Z,0.24
2022-11-30T05:30:34.510Z,0.23
2022-11-30T05:33:09.842Z,0.22
2022-11-30T05:35:36.322Z,0.19
2022-11-30T05:38:03.453Z,0.16
2022-11-30T05:40:32.602Z,0.12
2022-11-30T05:43:01.780Z,0.14
2022-11-30T05:45:28.724Z,0.18
2022-11-30T05:47:55.361Z,0.24
2022-11-30T05:50:21.965Z,0.25
2022-11-30T05:52:48.836Z,0.26
2022-11-30T05:55:16.305Z,0.30
2022-11-30T05:57:42.774Z,0.31
2022-11-30T06:00:10.255Z,0.32
2022-11-30T06:02:37.020Z,0.36
2022-11-30T06:05:03.735Z,0.34
2022-11-30T06:07:30.263Z,0.30
2022-11-30T06:09:56.928Z,0.33
2022-11-30T06:12:23.393Z,0.29
2022-11-30T06:14:50.927Z,0.26
2022-11-30T06:17:17.593Z,0.22
2022-11-30T06:19:44.088Z,0.24
2022-11-30T06:22:10.503Z,0.24
2022-11-30T06:24:36.964Z,0.22
2022-11-30T06:27:03.840Z,0.15
2022-11-30T06:29:30.249Z,0.13
2022-11-30T06:31:56.802Z,0.12
2022-11-30T06:34:23.545Z,0.11
2022-11-30T06:36:50.241Z,0.16
2022-11-30T06:39:16.663Z,0.12
2022-11-30T06:41:43.086Z,0.07
2022-11-30T06:44:10.812Z,0.06
2022-11-30T06:46:37.245Z,0.06
2022-11-30T06:49:03.816Z,0.00
2022-11-30T06:51:30.281Z,-0.02
2022-11-30T06:53:56.748Z,-0.03
2022-11-30T06:56:23.165Z,-0.05
2022-11-30T06:58:49.665Z,0.00
2022-11-30T07:01:16.332Z,0.05
2022-11-30T07:03:43.610Z,-0.02
2022-11-30T07:06:14.498Z,0.05
2022-11-30T07:08:42.016Z,0.08
2022-11-30T07:11:09.622Z,0.10
2022-11-30T07:13:36.641Z,0.11
2022-11-30T07:16:04.943Z,0.11
2022-11-30T07:18:32.343Z,0.08
2022-11-30T07:21:03.658Z,0.10
2022-11-30T07:23:59.889Z,0.12
2022-11-30T07:26:27.296Z,0.17
2022-11-30T07:28:55.491Z,0.21
2022-11-30T07:31:26.303Z,0.24
2022-11-30T07:33:53.071Z,0.26
2022-11-30T07:36:21.768Z,0.30
2022-11-30T07:38:48.505Z,0.31
2022-11-30T07:41:14.966Z,0.32
2022-11-30T07:43:41.794Z,0.39
2022-11-30T07:46:11.195Z,0.40
2022-11-30T07:48:37.718Z,0.46
2022-11-30T07:51:12.255Z,0.46
2022-11-30T07:53:38.739Z,0.47
2022-11-30T07:56:10.710Z,0.57
2022-11-30T07:58:38.039Z,0.58
2022-11-30T08:01:26.189Z,0.61
2022-11-30T08:03:53.796Z,0.63
2022-11-30T08:06:22.921Z,0.70
2022-11-30T08:08:52.266Z,0.74
2022-11-30T08:11:21.779Z,0.82
2022-11-30T08:13:48.699Z,0.87
2022-11-30T08:16:28.148Z,0.95
2022-11-30T08:18:58.638Z,1.03
2022-11-30T08:21:25.661Z,1.09
2022-11-30T08:23:53.461Z,1.20
2022-11-30T08:26:31.558Z,1.26
2022-11-30T08:28:59.552Z,1.37
2022-11-30T08:31:34.952Z,1.46
2022-11-30T08:34:13.209Z,1.58
2022-11-30T08:36:40.685Z,1.66
2022-11-30T08:39:09.013Z,1.77
2022-11-30T08:41:35.585Z,1.90
2022-11-30T08:44:02.706Z,2.16
2022-11-30T08:49:24.122Z,3.03
2022-11-30T08:54:44.883Z,3.84
2022-11-30T08:57:11.748Z,4.17
2022-11-30T08:59:38.349Z,4.44
2022-11-30T09:02:04.915Z,4.63
2022-11-30T09:04:31.417Z,4.92
2022-11-30T09:06:59.283Z,5.03
2022-11-30T09:09:26.005Z,5.20
2022-11-30T09:11:52.594Z,5.32
2022-11-30T09:14:19.042Z,5.47
2022-11-30T09:16:45.446Z,5.68
2022-11-30T09:19:11.963Z,5.71
2022-11-30T09:21:38.603Z,5.75
2022-11-30T09:24:05.229Z,5.82
2022-11-30T09:26:31.688Z,5.89
2022-11-30T09:28:58.149Z,6.05
2022-11-30T09:31:26.462Z,6.16
2022-11-30T09:33:55.113Z,6.05
2022-11-30T09:36:23.912Z,5.95
2022-11-30T09:38:50.397Z,5.57
2022-11-30T09:41:28.684Z,5.32
2022-11-30T09:44:26.826Z,5.36
2022-11-30T09:47:15.184Z,5.29
2022-11-30T09:49:44.877Z,5.13
2022-11-30T09:52:18.311Z,5.02
2022-11-30T09:54:47.965Z,4.97
2022-11-30T09:57:31.385Z,4.98
2022-11-30T10:00:00.560Z,4.96
2022-11-30T10:02:33.810Z,4.93
2022-11-30T10:05:01.106Z,5.00
2022-11-30T10:07:42.881Z,5.12
2022-11-30T10:10:36.417Z,5.12
2022-11-30T10:13:25.068Z,5.05
2022-11-30T10:15:57.575Z,4.97
2022-11-30T10:19:02.244Z,4.92
2022-11-30T10:21:57.942Z,4.94
2022-11-30T10:24:35.832Z,5.09
2022-11-30T10:27:13.997Z,5.20
2022-11-30T10:29:42.833Z,5.29
2022-11-30T10:32:21.059Z,5.39
2022-11-30T10:35:01.803Z,5.49
2022-11-30T10:37:37.268Z,5.61
2022-11-30T10:40:13.406Z,5.67
2022-11-30T10:43:04.957Z,5.72
2022-11-30T10:45:32.746Z,5.76
2022-11-30T10:48:31.545Z,5.82
2022-11-30T10:51:00.501Z,5.74
2022-11-30T10:53:27.042Z,5.73
2022-11-30T10:56:19.818Z,5.69
2022-11-30T10:58:55.383Z,5.62
2022-11-30T11:01:30.855Z,5.59
2022-11-30T11:04:12.679Z,5.61
2022-11-30T11:06:59.484Z,5.50
2022-11-30T11:09:36.837Z,5.53
2022-11-30T11:12:06.317Z,5.63
2022-11-30T11:14:37.928Z,5.56
2022-11-30T11:17:20.116Z,5.47
2022-11-30T11:19:48.997Z,5.37
2022-11-30T11:22:27.748Z,5.39
2022-11-30T11:25:14.793Z,5.37
2022-11-30T11:27:44.840Z,5.37
2022-11-30T11:30:26.982Z,5.37
2022-11-30T11:33:09.680Z,5.50
2022-11-30T11:35:43.865Z,5.70
2022-11-30T11:38:22.444Z,5.85
2022-11-30T11:40:59.475Z,5.88
2022-11-30T11:43:29.385Z,5.87
2022-11-30T11:46:01.770Z,5.86
2022-11-30T11:48:36.206Z,5.90
2022-11-30T11:51:08.122Z,5.96
2022-11-30T11:53:53.597Z,5.82
2022-11-30T11:56:26.539Z,5.80
2022-11-30T11:59:06.831Z,5.89
2022-11-30T12:01:40.652Z,6.03
2022-11-30T12:04:45.463Z,6.16
2022-11-30T12:07:36.507Z,6.04
2022-11-30T12:10:21.836Z,5.79
2022-11-30T12:12:57.830Z,5.74
2022-11-30T12:15:32.678Z,5.72
2022-11-30T12:18:15.149Z,5.66
2022-11-30T12:21:01.594Z,5.40
2022-11-30T12:23:58.799Z,5.29
2022-11-30T12:26:39.213Z,5.19
2022-11-30T12:29:17.884Z,5.03
2022-11-30T12:32:22.855Z,4.87
2022-11-30T12:35:22.775Z,4.67
2022-11-30T12:38:23.535Z,4.53
2022-11-30T12:41:07.350Z,4.43
2022-11-30T12:43:53.028Z,4.30
2022-11-30T12:46:42.246Z,4.24
2022-11-30T12:49:27.796Z,4.14
2022-11-30T12:52:06.036Z,4.04
2022-11-30T12:55:07.920Z,4.02
2022-11-30T12:57:41.241Z,3.98
2022-11-30T13:00:22.081Z,4.00
2022-11-30T13:03:21.005Z,4.00
2022-11-30T13:05:58.093Z,3.92
2022-11-30T13:08:55.466Z,3.91
2022-11-30T13:11:29.179Z,3.95
2022-11-30T13:13:59.168Z,3.93
2022-11-30T13:16:26.678Z,4.06
2022-11-30T13:18:59.107Z,4.21
2022-11-30T13:21:53.293Z,4.32
2022-11-30T13:24:29.266Z,4.40
2022-11-30T13:27:06.731Z,4.42
2022-11-30T13:30:16.895Z,4.50
2022-11-30T13:32:59.325Z,4.45
2022-11-30T13:35:29.237Z,4.44
2022-11-30T13:38:35.667Z,4.40
2022-11-30T13:41:05.457Z,4.42
2022-11-30T13:43:37.488Z,4.40
2022-11-30T13:46:15.453Z,4.39
2022-11-30T13:48:44.068Z,4.43
2022-11-30T13:51:33.527Z,4.35
2022-11-30T13:54:37.778Z,4.30
2022-11-30T13:57:16.330Z,4.35
2022-11-30T13:59:51.606Z,4.29
2022-11-30T14:02:53.723Z,4.26
2022-11-30T14:05:23.872Z,4.20
2022-11-30T14:07:50.382Z,4.19
2022-11-30T14:10:33.360Z,4.15
2022-11-30T14:13:10.655Z,4.11
2022-11-30T14:15:40.905Z,4.12
2022-11-30T14:18:07.265Z,4.13
2022-11-30T14:20:39.170Z,4.14
2022-11-30T14:23:12.254Z,4.09
2022-11-30T14:25:45.080Z,4.07
2022-11-30T14:28:16.201Z,4.06
2022-11-30T14:30:45.915Z,4.03
2022-11-30T14:33:19.924Z,4.00
2022-11-30T14:35:53.122Z,3.96
2022-11-30T14:38:25.894Z,3.91
2022-11-30T14:40:54.152Z,3.87
2022-11-30T14:43:20.906Z,3.80
2022-11-30T14:46:05.763Z,3.75
2022-11-30T14:48:34.684Z,3.69
2022-11-30T14:51:03.791Z,3.64
2022-11-30T14:53:42.757Z,3.58
2022-11-30T14:56:21.973Z,3.51
2022-11-30T14:58:55.484Z,3.44
2022-11-30T15:01:25.312Z,3.36
2022-11-30T15:03:56.751Z,3.30
2022-11-30T15:06:33.604Z,3.23
2022-11-30T15:09:01.575Z,3.15
2022-11-30T15:11:28.649Z,3.06
2022-11-30T15:13:56.440Z,3.01
2022-11-30T15:16:27.604Z,2.98
2022-11-30T15:18:56.337Z,2.97
2022-11-30T15:21:28.502Z,2.97
2022-11-30T15:23:56.696Z,2.98
2022-11-30T15:26:32.309Z,2.99
2022-11-30T15:29:04.119Z,2.99
2022-11-30T15:31:40.464Z,3.02
2022-11-30T15:34:16.804Z,3.04
2022-11-30T15:36:43.379Z,3.05
2022-11-30T15:39:20.476Z,3.07
2022-11-30T15:41:49.577Z,3.06
2022-11-30T15:44:25.050Z,3.06
2022-11-30T15:47:02.615Z,3.13
2022-11-30T15:49:37.240Z,3.10
2022-11-30T15:52:17.359Z,3.11
2022-11-30T15:54:55.202Z,3.05
2022-11-30T15:57:23.853Z,3.07
2022-11-30T16:00:20.349Z,3.00
2022-11-30T16:02:46.894Z,2.95
2022-11-30T16:05:14.813Z,2.94
2022-11-30T16:07:57.515Z,2.90
2022-11-30T16:10:35.308Z,2.86
2022-11-30T16:13:02.137Z,2.82
2022-11-30T16:15:36.726Z,2.79
2022-11-30T16:18:19.066Z,2.76
2022-11-30T16:20:48.680Z,2.76
2022-11-30T16:23:15.927Z,2.74
2022-11-30T16:25:44.330Z,2.67
2022-11-30T16:28:12.590Z,2.62
2022-11-30T16:30:40.884Z,2.58
2022-11-30T16:33:22.259Z,2.55
2022-11-30T16:36:01.445Z,2.57
2022-11-30T16:38:28.648Z,2.53
2022-11-30T16:40:55.933Z,2.52
2022-11-30T16:43:23.337Z,2.59
2022-11-30T16:45:50.970Z,2.49
2022-11-30T16:48:18.174Z,2.42
2022-11-30T16:50:44.787Z,2.45
2022-11-30T16:53:16.404Z,2.47
2022-11-30T16:55:43.251Z,2.48
2022-11-30T16:58:09.976Z,2.53
2022-11-30T17:00:40.243Z,2.61
2022-11-30T17:03:22.240Z,2.54
2022-11-30T17:05:48.696Z,2.46
2022-11-30T17:08:15.269Z,2.48
2022-11-30T17:10:42.380Z,2.41
2022-11-30T17:13:15.624Z,2.33
2022-11-30T17:15:42.159Z,2.31
2022-11-30T17:18:08.715Z,2.35
2022-11-30T17:20:37.027Z,2.25
2022-11-30T17:23:04.907Z,2.35
2022-11-30T17:25:31.455Z,2.38
2022-11-30T17:28:00.225Z,2.30
2022-11-30T17:30:27.897Z,2.25
2022-11-30T17:32:54.569Z,2.19
2022-11-30T17:35:21.085Z,2.09
2022-11-30T17:37:47.633Z,2.05
2022-11-30T17:40:16.195Z,2.00
2022-11-30T17:42:43.256Z,2.00
2022-11-30T17:45:09.979Z,1.97
2022-11-30T17:47:36.552Z,1.97
2022-11-30T17:50:03.815Z,1.97
2022-11-30T17:52:30.273Z,1.95
2022-11-30T17:54:56.807Z,1.99
2022-11-30T17:57:23.285Z,2.00
2022-11-30T17:59:49.748Z,2.04
2022-11-30T18:02:16.238Z,2.01
2022-11-30T18:04:42.760Z,2.00
2022-11-30T18:07:09.329Z,1.98
2022-11-30T18:09:40.946Z,1.99
2022-11-30T18:12:09.770Z,1.99
2022-11-30T18:14:36.271Z,2.00
2022-11-30T18:17:02.917Z,2.00
2022-11-30T18:19:29.490Z,1.93
2022-11-30T18:21:56.027Z,1.93
2022-11-30T18:24:25.559Z,1.87
2022-11-30T18:26:52.873Z,1.81
2022-11-30T18:29:19.439Z,1.87
2022-11-30T18:31:48.271Z,1.80
2022-11-30T18:34:15.051Z,1.78
2022-11-30T18:36:41.544Z,1.75
2022-11-30T18:39:08.333Z,1.76
2022-11-30T18:41:34.898Z,1.78
2022-11-30T18:44:01.532Z,1.66
2022-11-30T18:46:28.105Z,1.59
2022-11-30T18:48:54.774Z,1.49
2022-11-30T18:51:24.206Z,1.45
2022-11-30T18:53:57.796Z,1.39
2022-11-30T18:56:26.144Z,1.32
2022-11-30T18:58:57.781Z,1.27
2022-11-30T19:01:24.982Z,1.11
2022-11-30T19:03:53.508Z,1.08
2022-11-30T19:06:20.576Z,1.05
2022-11-30T19:08:47.811Z,1.11
2022-11-30T19:11:15.612Z,1.05
2022-11-30T19:13:42.375Z,1.02
2022-11-30T19:16:14.975Z,0.96
2022-11-30T19:18:41.940Z,0.83
2022-11-30T19:21:14.399Z,0.69
2022-11-30T19:23:40.990Z,0.68
2022-11-30T19:26:09.929Z,0.68
2022-11-30T19:28:37.946Z,0.71
2022-11-30T19:31:09.798Z,0.74
2022-11-30T19:33:38.400Z,0.62
2022-11-30T19:36:07.242Z,0.57
2022-11-30T19:38:33.833Z,0.52
2022-11-30T19:41:08.751Z,0.62
2022-11-30T19:43:35.860Z,0.49
2022-11-30T19:46:10.154Z,0.47
2022-11-30T19:48:37.312Z,0.46
2022-11-30T19:51:05.933Z,0.50
2022-11-30T19:53:32.978Z,0.48
2022-11-30T19:55:59.451Z,0.46
2022-11-30T19:58:26.064Z,0.47
2022-11-30T20:00:52.516Z,0.50
2022-11-30T20:03:19.868Z,0.41
2022-11-30T20:05:50.534Z,0.38
2022-11-30T20:08:17.368Z,0.39
2022-11-30T20:10:44.464Z,0.43
2022-11-30T20:13:13.960Z,0.44
2022-11-30T20:15:41.078Z,0.32
2022-11-30T20:18:08.017Z,0.27
2022-11-30T20:20:35.278Z,0.21
2022-11-30T20:23:02.663Z,0.21
2022-11-30T20:25:31.109Z,0.14
2022-11-30T20:27:58.151Z,0.12
2022-11-30T20:30:24.810Z,0.15
2022-11-30T20:32:51.269Z,0.13
2022-11-30T20:35:17.846Z,0.14
2022-11-30T20:37:44.334Z,0.12
2022-11-30T20:40:11.605Z,0.13
2022-11-30T20:42:38.072Z,0.14
2022-11-30T20:45:04.940Z,0.14
2022-11-30T20:47:35.284Z,0.13
2022-11-30T20:50:02.755Z,0.18
2022-11-30T20:52:29.253Z,0.23
2022-11-30T20:54:55.778Z,0.25
2022-11-30T20:57:22.294Z,0.27
2022-11-30T20:59:48.857Z,0.25
2022-11-30T21:02:15.449Z,0.23
2022-11-30T21:04:42.011Z,0.24
2022-11-30T21:07:08.504Z,0.24
2022-11-30T21:09:34.984Z,0.24
2022-11-30T21:12:01.578Z,0.31
2022-11-30T21:14:28.271Z,0.31
2022-11-30T21:16:54.870Z,0.32
2022-11-30T21:19:21.377Z,0.34
2022-11-30T21:21:47.959Z,0.32
2022-11-30T21:24:14.467Z,0.41
2022-11-30T21:26:42.460Z,0.38
2022-11-30T21:29:15.139Z,0.43
2022-11-30T21:31:42.078Z,0.52
2022-11-30T21:34:08.886Z,0.51
2022-11-30T21:36:35.351Z,0.46
2022-11-30T21:39:06.342Z,0.41
2022-11-30T21:41:38.054Z,0.37
2022-11-30T21:44:06.101Z,0.36
2022-11-30T21:46:33.593Z,0.27
2022-11-30T21:49:00.595Z,0.26
2022-11-30T21:51:29.061Z,0.19
2022-11-30T21:54:04.191Z,0.18
2022-11-30T21:56:34.214Z,0.17
2022-11-30T21:59:01.370Z,0.15
2022-11-30T22:01:36.957Z,0.12
2022-11-30T22:04:05.914Z,0.12
2022-11-30T22:06:34.824Z,0.14
2022-11-30T22:09:07.919Z,0.11
2022-11-30T22:11:37.164Z,0.09
2022-11-30T22:14:03.728Z,0.05
2022-11-30T22:16:35.850Z,0.08
2022-11-30T22:19:06.238Z,0.12
2022-11-30T22:21:33.041Z,0.13
2022-11-30T22:24:05.547Z,0.11
2022-11-30T22:26:33.306Z,0.03
2022-11-30T22:29:02.399Z,0.02
2022-11-30T22:31:33.613Z,0.05
2022-11-30T22:34:00.832Z,0.01
2022-11-30T22:36:30.238Z,0.02
2022-11-30T22:39:00.978Z,0.04
2022-11-30T22:41:28.431Z,0.04
2022-11-30T22:43:56.316Z,0.14
2022-11-30T22:46:28.633Z,0.20
2022-11-30T22:48:55.813Z,0.26
2022-11-30T22:51:24.424Z,0.22
2022-11-30T22:53:52.001Z,0.22
2022-11-30T22:56:24.530Z,0.18
2022-11-30T22:58:54.204Z,0.06
2022-11-30T23:01:23.807Z,0.06
2022-11-30T23:03:53.299Z,-0.04
2022-11-30T23:06:21.486Z,-0.03
2022-11-30T23:08:49.833Z,-0.03
2022-11-30T23:11:20.349Z,-0.06
2022-11-30T23:13:47.306Z,-0.06
2022-11-30T23:16:14.704Z,-0.11
2022-11-30T23:18:43.954Z,-0.11
2022-11-30T23:21:22.245Z,-0.11
2022-11-30T23:23:49.563Z,-0.11
2022-11-30T23:26:19.852Z,-0.18
2022-11-30T23:28:48.262Z,-0.17
2022-11-30T23:31:32.466Z,-0.21
2022-11-30T23:34:03.424Z,-0.22
2022-11-30T23:36:29.936Z,-0.20
2022-11-30T23:39:03.469Z,-0.14
2022-11-30T23:41:30.472Z,-0.11
2022-11-30T23:43:56.943Z,-0.17
2022-11-30T23:46:24.113Z,-0.11
2022-11-30T23:48:50.757Z,-0.19
2022-11-30T23:51:18.098Z,-0.19
2022-11-30T23:53:44.748Z,-0.15
2022-11-30T23:56:14.554Z,-0.16
2022-11-30T23:58:41.335Z,-0.18
